sensor_id;sensor_type;location;lat;lon;timestamp;pressure;altitude;pressure_sealevel;temperature;humidity
10079;BME280;5078;42.544;22.966;2023-04-03T00:01:34;93303.72;;;6.07;100.00
10079;BME280;5078;42.544;22.966;2023-04-03T00:04:03;93299.31;;;6.48;100.00
10079;BME280;5078;42.544;22.966;2023-04-03T00:06:30;93295.03;;;6.47;100.00
10079;BME280;5078;42.544;22.966;2023-04-03T00:08:58;93292.91;;;6.26;100.00
10079;BME280;5078;42.544;22.966;2023-04-03T00:11:25;93300.78;;;6.43;100.00
10079;BME280;5078;42.544;22.966;2023-04-03T00:13:51;93299.16;;;6.50;100.00
10079;BME280;5078;42.544;22.966;2023-04-03T00:16:18;93291.91;;;6.28;100.00
10079;BME280;5078;42.544;22.966;2023-04-03T00:18:45;93259.69;;;5.58;100.00
10079;BME280;5078;42.544;22.966;2023-04-03T00:21:13;93303.41;;;6.02;100.00
10079;BME280;5078;42.544;22.966;2023-04-03T00:23:40;93294.69;;;6.10;100.00
10079;BME280;5078;42.544;22.966;2023-04-03T00:26:09;93289.81;;;5.72;100.00
10079;BME280;5078;42.544;22.966;2023-04-03T00:28:35;93282.28;;;5.86;100.00
10079;BME280;5078;42.544;22.966;2023-04-03T00:31:02;93290.66;;;5.81;100.00
10079;BME280;5078;42.544;22.966;2023-04-03T00:33:29;93281.25;;;5.70;100.00
10079;BME280;5078;42.544;22.966;2023-04-03T00:35:56;93282.91;;;5.71;100.00
10079;BME280;5078;42.544;22.966;2023-04-03T00:38:23;93276.69;;;5.80;100.00
10079;BME280;5078;42.544;22.966;2023-04-03T00:40:49;93284.09;;;5.85;100.00
10079;BME280;5078;42.544;22.966;2023-04-03T00:43:20;93277.63;;;5.63;100.00
10079;BME280;5078;42.544;22.966;2023-04-03T00:45:48;93272.09;;;5.82;100.00
10079;BME280;5078;42.544;22.966;2023-04-03T00:48:18;93285.22;;;5.74;100.00
10079;BME280;5078;42.544;22.966;2023-04-03T00:50:46;93272.56;;;5.78;100.00
10079;BME280;5078;42.544;22.966;2023-04-03T00:53:18;93279.84;;;5.92;100.00
10079;BME280;5078;42.544;22.966;2023-04-03T00:55:47;93279.16;;;5.90;100.00
10079;BME280;5078;42.544;22.966;2023-04-03T00:58:15;93283.69;;;6.14;100.00
10079;BME280;5078;42.544;22.966;2023-04-03T01:00:50;93276.91;;;6.03;100.00
10079;BME280;5078;42.544;22.966;2023-04-03T01:03:22;93278.22;;;6.16;100.00
10079;BME280;5078;42.544;22.966;2023-04-03T01:05:49;93277.91;;;6.11;100.00
10079;BME280;5078;42.544;22.966;2023-04-03T01:08:16;93276.41;;;6.08;100.00
10079;BME280;5078;42.544;22.966;2023-04-03T01:10:43;93277.09;;;6.18;100.00
10079;BME280;5078;42.544;22.966;2023-04-03T01:13:25;93278.22;;;6.24;100.00
10079;BME280;5078;42.544;22.966;2023-04-03T01:15:54;93273.13;;;6.06;100.00
10079;BME280;5078;42.544;22.966;2023-04-03T01:18:22;93281.03;;;6.22;100.00
10079;BME280;5078;42.544;22.966;2023-04-03T01:24:11;93290.72;;;6.14;100.00
10079;BME280;5078;42.544;22.966;2023-04-03T01:26:42;93290.56;;;6.15;100.00
10079;BME280;5078;42.544;22.966;2023-04-03T01:29:09;93294.34;;;6.13;100.00
10079;BME280;5078;42.544;22.966;2023-04-03T01:31:52;93293.50;;;5.96;100.00
10079;BME280;5078;42.544;22.966;2023-04-03T01:34:19;93296.44;;;5.93;100.00
10079;BME280;5078;42.544;22.966;2023-04-03T01:36:45;93299.00;;;5.68;100.00
10079;BME280;5078;42.544;22.966;2023-04-03T01:39:12;93300.94;;;5.15;100.00
10079;BME280;5078;42.544;22.966;2023-04-03T01:41:39;93288.19;;;5.29;100.00
10079;BME280;5078;42.544;22.966;2023-04-03T01:44:06;93294.41;;;5.19;100.00
10079;BME280;5078;42.544;22.966;2023-04-03T01:46:33;93295.13;;;5.04;100.00
10079;BME280;5078;42.544;22.966;2023-04-03T01:49:02;93289.94;;;5.12;100.00
10079;BME280;5078;42.544;22.966;2023-04-03T01:51:28;93294.63;;;5.34;100.00
10079;BME280;5078;42.544;22.966;2023-04-03T01:53:55;93283.09;;;5.27;100.00
10079;BME280;5078;42.544;22.966;2023-04-03T01:56:22;93279.41;;;5.12;100.00
10079;BME280;5078;42.544;22.966;2023-04-03T01:58:49;93273.31;;;5.11;100.00
10079;BME280;5078;42.544;22.966;2023-04-03T02:01:17;93285.66;;;4.59;100.00
10079;BME280;5078;42.544;22.966;2023-04-03T02:03:46;93230.28;;;4.44;100.00
10079;BME280;5078;42.544;22.966;2023-04-03T02:06:15;93278.78;;;4.58;100.00
10079;BME280;5078;42.544;22.966;2023-04-03T02:08:41;93277.38;;;4.71;100.00
10079;BME280;5078;42.544;22.966;2023-04-03T02:11:08;93274.22;;;4.42;100.00
10079;BME280;5078;42.544;22.966;2023-04-03T02:13:35;93275.47;;;4.56;100.00
10079;BME280;5078;42.544;22.966;2023-04-03T02:16:06;93275.88;;;4.69;100.00
10079;BME280;5078;42.544;22.966;2023-04-03T02:18:33;93270.72;;;4.59;100.00
10079;BME280;5078;42.544;22.966;2023-04-03T02:21:00;93272.66;;;4.75;100.00
10079;BME280;5078;42.544;22.966;2023-04-03T02:23:28;93273.00;;;4.80;100.00
10079;BME280;5078;42.544;22.966;2023-04-03T02:26:03;93269.34;;;4.73;100.00
10079;BME280;5078;42.544;22.966;2023-04-03T02:28:29;93271.22;;;4.54;100.00
10079;BME280;5078;42.544;22.966;2023-04-03T02:30:56;93271.97;;;4.73;100.00
10079;BME280;5078;42.544;22.966;2023-04-03T02:33:23;93265.38;;;4.69;100.00
10079;BME280;5078;42.544;22.966;2023-04-03T02:35:52;93270.13;;;4.65;100.00
10079;BME280;5078;42.544;22.966;2023-04-03T02:38:19;93269.84;;;4.76;100.00
10079;BME280;5078;42.544;22.966;2023-04-03T02:40:47;93271.13;;;4.64;100.00
10079;BME280;5078;42.544;22.966;2023-04-03T02:43:14;93270.63;;;4.69;100.00
10079;BME280;5078;42.544;22.966;2023-04-03T02:45:40;93255.63;;;4.27;100.00
10079;BME280;5078;42.544;22.966;2023-04-03T02:48:07;93257.56;;;3.89;100.00
10079;BME280;5078;42.544;22.966;2023-04-03T02:50:34;93243.09;;;4.21;100.00
10079;BME280;5078;42.544;22.966;2023-04-03T02:53:00;93241.72;;;4.35;100.00
10079;BME280;5078;42.544;22.966;2023-04-03T02:55:27;93251.63;;;4.23;100.00
10079;BME280;5078;42.544;22.966;2023-04-03T02:57:55;93242.88;;;4.14;100.00
10079;BME280;5078;42.544;22.966;2023-04-03T03:00:22;93238.00;;;4.01;100.00
10079;BME280;5078;42.544;22.966;2023-04-03T03:02:49;93241.09;;;4.15;100.00
10079;BME280;5078;42.544;22.966;2023-04-03T03:05:15;93239.59;;;3.94;100.00
10079;BME280;5078;42.544;22.966;2023-04-03T03:07:42;93235.75;;;4.24;100.00
10079;BME280;5078;42.544;22.966;2023-04-03T03:10:09;93232.72;;;4.37;100.00
10079;BME280;5078;42.544;22.966;2023-04-03T03:12:36;93233.94;;;4.25;100.00
10079;BME280;5078;42.544;22.966;2023-04-03T03:15:05;93221.09;;;4.40;100.00
10079;BME280;5078;42.544;22.966;2023-04-03T03:17:32;93236.53;;;4.43;100.00
10079;BME280;5078;42.544;22.966;2023-04-03T03:19:58;93227.50;;;4.45;100.00
10079;BME280;5078;42.544;22.966;2023-04-03T03:22:25;93228.66;;;4.43;100.00
10079;BME280;5078;42.544;22.966;2023-04-03T03:24:52;93226.16;;;4.41;100.00
10079;BME280;5078;42.544;22.966;2023-04-03T03:27:19;93229.59;;;4.16;100.00
10079;BME280;5078;42.544;22.966;2023-04-03T03:29:46;93226.81;;;3.73;100.00
10079;BME280;5078;42.544;22.966;2023-04-03T03:32:14;93227.09;;;3.70;100.00
10079;BME280;5078;42.544;22.966;2023-04-03T03:34:40;93222.81;;;4.05;100.00
10079;BME280;5078;42.544;22.966;2023-04-03T03:37:07;93216.59;;;3.88;100.00
10079;BME280;5078;42.544;22.966;2023-04-03T03:39:34;93220.31;;;4.03;100.00
10079;BME280;5078;42.544;22.966;2023-04-03T03:42:01;93227.09;;;3.88;100.00
10079;BME280;5078;42.544;22.966;2023-04-03T03:44:27;93222.09;;;4.21;100.00
10079;BME280;5078;42.544;22.966;2023-04-03T03:46:54;93223.31;;;4.08;100.00
10079;BME280;5078;42.544;22.966;2023-04-03T03:49:23;93220.31;;;4.03;100.00
10079;BME280;5078;42.544;22.966;2023-04-03T03:51:50;93223.97;;;3.84;100.00
10079;BME280;5078;42.544;22.966;2023-04-03T03:54:17;93245.75;;;3.67;100.00
10079;BME280;5078;42.544;22.966;2023-04-03T03:56:43;93238.56;;;3.87;100.00
10079;BME280;5078;42.544;22.966;2023-04-03T03:59:11;93237.28;;;3.73;100.00
10079;BME280;5078;42.544;22.966;2023-04-03T04:01:38;93250.00;;;3.32;100.00
10079;BME280;5078;42.544;22.966;2023-04-03T04:04:05;93243.44;;;3.18;100.00
10079;BME280;5078;42.544;22.966;2023-04-03T04:06:33;93260.75;;;3.29;100.00
10079;BME280;5078;42.544;22.966;2023-04-03T04:09:00;93262.31;;;3.50;100.00
10079;BME280;5078;42.544;22.966;2023-04-03T04:11:27;93268.31;;;3.60;100.00
10079;BME280;5078;42.544;22.966;2023-04-03T04:13:54;93253.69;;;3.57;100.00
10079;BME280;5078;42.544;22.966;2023-04-03T04:16:20;93247.47;;;3.58;100.00
10079;BME280;5078;42.544;22.966;2023-04-03T04:18:47;93259.81;;;3.48;100.00
10079;BME280;5078;42.544;22.966;2023-04-03T04:21:14;93254.69;;;3.29;100.00
10079;BME280;5078;42.544;22.966;2023-04-03T04:23:42;93255.56;;;3.47;100.00
10079;BME280;5078;42.544;22.966;2023-04-03T04:26:08;93255.44;;;3.39;100.00
10079;BME280;5078;42.544;22.966;2023-04-03T04:28:35;93249.84;;;3.06;100.00
10079;BME280;5078;42.544;22.966;2023-04-03T04:31:02;93256.81;;;3.43;100.00
10079;BME280;5078;42.544;22.966;2023-04-03T04:33:29;93257.06;;;3.50;100.00
10079;BME280;5078;42.544;22.966;2023-04-03T04:35:56;93264.25;;;3.65;100.00
10079;BME280;5078;42.544;22.966;2023-04-03T04:38:22;93255.94;;;3.70;100.00
10079;BME280;5078;42.544;22.966;2023-04-03T04:40:50;93261.19;;;3.70;100.00
10079;BME280;5078;42.544;22.966;2023-04-03T04:43:17;93276.00;;;3.61;100.00
10079;BME280;5078;42.544;22.966;2023-04-03T04:45:44;93260.00;;;3.64;100.00
10079;BME280;5078;42.544;22.966;2023-04-03T04:48:10;93284.53;;;3.63;100.00
10079;BME280;5078;42.544;22.966;2023-04-03T04:50:37;93252.94;;;3.47;100.00
10079;BME280;5078;42.544;22.966;2023-04-03T04:53:04;93291.28;;;3.66;100.00
10079;BME280;5078;42.544;22.966;2023-04-03T04:55:31;93302.94;;;3.54;100.00
10079;BME280;5078;42.544;22.966;2023-04-03T04:57:59;93301.75;;;3.48;100.00
10079;BME280;5078;42.544;22.966;2023-04-03T05:00:26;93304.84;;;3.79;100.00
10079;BME280;5078;42.544;22.966;2023-04-03T05:02:52;93302.63;;;4.02;100.00
10079;BME280;5078;42.544;22.966;2023-04-03T05:05:19;93306.50;;;3.80;100.00
10079;BME280;5078;42.544;22.966;2023-04-03T05:07:46;93298.78;;;3.79;100.00
10079;BME280;5078;42.544;22.966;2023-04-03T05:10:12;93299.38;;;3.73;100.00
10079;BME280;5078;42.544;22.966;2023-04-03T05:12:39;93306.06;;;3.85;100.00
10079;BME280;5078;42.544;22.966;2023-04-03T05:15:08;93310.13;;;3.97;100.00
10079;BME280;5078;42.544;22.966;2023-04-03T05:17:35;93310.69;;;4.09;100.00
10079;BME280;5078;42.544;22.966;2023-04-03T05:20:02;93291.00;;;4.23;100.00
10079;BME280;5078;42.544;22.966;2023-04-03T05:22:30;93284.50;;;4.53;100.00
10079;BME280;5078;42.544;22.966;2023-04-03T05:24:56;93290.69;;;4.70;100.00
10079;BME280;5078;42.544;22.966;2023-04-03T05:27:23;93267.88;;;4.70;100.00
10079;BME280;5078;42.544;22.966;2023-04-03T05:29:50;93271.72;;;4.58;100.00
10079;BME280;5078;42.544;22.966;2023-04-03T05:32:20;93264.88;;;4.65;100.00
10079;BME280;5078;42.544;22.966;2023-04-03T05:34:47;93265.59;;;4.49;100.00
10079;BME280;5078;42.544;22.966;2023-04-03T05:37:14;93266.00;;;4.63;100.00
10079;BME280;5078;42.544;22.966;2023-04-03T05:39:40;93263.59;;;4.69;100.00
10079;BME280;5078;42.544;22.966;2023-04-03T05:42:07;93256.16;;;4.91;100.00
10079;BME280;5078;42.544;22.966;2023-04-03T05:44:34;93261.06;;;5.20;100.00
10079;BME280;5078;42.544;22.966;2023-04-03T05:47:02;93258.31;;;5.38;100.00
10079;BME280;5078;42.544;22.966;2023-04-03T05:49:31;93244.91;;;5.57;100.00
10079;BME280;5078;42.544;22.966;2023-04-03T05:51:58;93246.13;;;5.79;100.00
10079;BME280;5078;42.544;22.966;2023-04-03T05:54:26;93239.50;;;5.67;100.00
10079;BME280;5078;42.544;22.966;2023-04-03T05:56:53;93228.94;;;5.51;100.00
10079;BME280;5078;42.544;22.966;2023-04-03T05:59:20;93238.50;;;5.52;100.00
10079;BME280;5078;42.544;22.966;2023-04-03T06:01:47;93231.75;;;5.57;100.00
10079;BME280;5078;42.544;22.966;2023-04-03T06:04:14;93235.88;;;5.76;100.00
10079;BME280;5078;42.544;22.966;2023-04-03T06:06:48;93242.81;;;5.69;100.00
10079;BME280;5078;42.544;22.966;2023-04-03T06:09:15;93230.75;;;5.42;100.00
10079;BME280;5078;42.544;22.966;2023-04-03T06:11:42;93228.59;;;5.37;100.00
10079;BME280;5078;42.544;22.966;2023-04-03T06:14:09;93231.28;;;5.62;100.00
10079;BME280;5078;42.544;22.966;2023-04-03T06:16:36;93204.13;;;5.45;100.00
10079;BME280;5078;42.544;22.966;2023-04-03T06:19:03;93235.63;;;6.04;100.00
10079;BME280;5078;42.544;22.966;2023-04-03T06:21:31;93246.50;;;6.17;100.00
10079;BME280;5078;42.544;22.966;2023-04-03T06:23:59;93240.06;;;6.44;100.00
10079;BME280;5078;42.544;22.966;2023-04-03T06:26:26;93236.75;;;6.59;100.00
10079;BME280;5078;42.544;22.966;2023-04-03T06:28:53;93229.59;;;6.84;100.00
10079;BME280;5078;42.544;22.966;2023-04-03T06:31:19;93243.09;;;6.97;100.00
10079;BME280;5078;42.544;22.966;2023-04-03T06:33:46;93243.53;;;7.17;100.00
10079;BME280;5078;42.544;22.966;2023-04-03T06:36:13;93240.69;;;7.27;100.00
10079;BME280;5078;42.544;22.966;2023-04-03T06:38:40;93240.84;;;7.25;100.00
10079;BME280;5078;42.544;22.966;2023-04-03T06:41:08;93233.28;;;7.22;100.00
10079;BME280;5078;42.544;22.966;2023-04-03T06:43:35;93232.38;;;7.46;100.00
10079;BME280;5078;42.544;22.966;2023-04-03T06:46:02;93245.03;;;7.51;100.00
10079;BME280;5078;42.544;22.966;2023-04-03T06:48:29;93239.88;;;7.57;100.00
10079;BME280;5078;42.544;22.966;2023-04-03T06:50:56;93227.94;;;7.70;100.00
10079;BME280;5078;42.544;22.966;2023-04-03T06:53:23;93231.69;;;7.75;100.00
10079;BME280;5078;42.544;22.966;2023-04-03T06:55:50;93240.50;;;7.91;100.00
10079;BME280;5078;42.544;22.966;2023-04-03T06:58:18;93244.28;;;7.96;100.00
10079;BME280;5078;42.544;22.966;2023-04-03T07:00:45;93250.31;;;8.05;100.00
10079;BME280;5078;42.544;22.966;2023-04-03T07:03:12;93236.19;;;7.98;100.00
10079;BME280;5078;42.544;22.966;2023-04-03T07:05:39;93220.50;;;7.42;100.00
10079;BME280;5078;42.544;22.966;2023-04-03T07:08:05;93255.50;;;7.67;100.00
10079;BME280;5078;42.544;22.966;2023-04-03T07:10:32;93265.69;;;7.39;100.00
10079;BME280;5078;42.544;22.966;2023-04-03T07:12:59;93255.00;;;7.32;100.00
10079;BME280;5078;42.544;22.966;2023-04-03T07:15:28;93255.44;;;7.44;100.00
10079;BME280;5078;42.544;22.966;2023-04-03T07:17:55;93252.81;;;7.36;100.00
10079;BME280;5078;42.544;22.966;2023-04-03T07:20:22;93236.03;;;7.37;100.00
10079;BME280;5078;42.544;22.966;2023-04-03T07:22:48;93239.94;;;7.49;100.00
10079;BME280;5078;42.544;22.966;2023-04-03T07:25:16;93246.94;;;7.96;100.00
10079;BME280;5078;42.544;22.966;2023-04-03T07:27:42;93215.88;;;7.98;100.00
10079;BME280;5078;42.544;22.966;2023-04-03T07:30:10;93215.59;;;8.39;100.00
10079;BME280;5078;42.544;22.966;2023-04-03T07:32:40;93219.41;;;8.90;100.00
10079;BME280;5078;42.544;22.966;2023-04-03T07:35:07;93205.44;;;8.81;100.00
10079;BME280;5078;42.544;22.966;2023-04-03T07:37:34;93189.31;;;8.76;100.00
10079;BME280;5078;42.544;22.966;2023-04-03T07:40:01;93190.78;;;9.23;100.00
10079;BME280;5078;42.544;22.966;2023-04-03T07:42:29;93183.81;;;9.52;100.00
10079;BME280;5078;42.544;22.966;2023-04-03T07:44:55;93134.75;;;9.34;100.00
10079;BME280;5078;42.544;22.966;2023-04-03T07:47:23;93164.25;;;9.89;100.00
10079;BME280;5078;42.544;22.966;2023-04-03T07:49:51;93160.09;;;10.01;100.00
10079;BME280;5078;42.544;22.966;2023-04-03T07:52:18;93148.91;;;10.27;100.00
10079;BME280;5078;42.544;22.966;2023-04-03T07:54:45;93156.84;;;10.49;100.00
10079;BME280;5078;42.544;22.966;2023-04-03T07:57:12;93157.34;;;10.66;100.00
10079;BME280;5078;42.544;22.966;2023-04-03T07:59:38;93150.66;;;10.70;100.00
10079;BME280;5078;42.544;22.966;2023-04-03T08:02:09;93149.47;;;10.72;100.00
10079;BME280;5078;42.544;22.966;2023-04-03T08:04:36;93151.94;;;10.74;100.00
10079;BME280;5078;42.544;22.966;2023-04-03T08:07:04;93140.53;;;10.80;100.00
10079;BME280;5078;42.544;22.966;2023-04-03T08:09:31;93129.06;;;10.73;100.00
10079;BME280;5078;42.544;22.966;2023-04-03T08:11:58;93133.44;;;10.87;100.00
10079;BME280;5078;42.544;22.966;2023-04-03T08:14:25;93112.28;;;10.94;96.85
10079;BME280;5078;42.544;22.966;2023-04-03T08:16:51;93116.84;;;11.13;93.63
10079;BME280;5078;42.544;22.966;2023-04-03T08:19:18;93127.50;;;11.27;92.23
10079;BME280;5078;42.544;22.966;2023-04-03T08:21:45;93125.84;;;11.19;90.59
10079;BME280;5078;42.544;22.966;2023-04-03T08:24:13;93121.53;;;11.11;89.87
10079;BME280;5078;42.544;22.966;2023-04-03T08:26:40;93123.84;;;11.28;89.45
10079;BME280;5078;42.544;22.966;2023-04-03T08:29:07;93129.13;;;11.28;87.04
10079;BME280;5078;42.544;22.966;2023-04-03T08:31:33;93128.00;;;11.43;85.11
10079;BME280;5078;42.544;22.966;2023-04-03T08:34:00;93127.38;;;11.41;84.04
10079;BME280;5078;42.544;22.966;2023-04-03T08:36:28;93109.41;;;11.43;81.25
10079;BME280;5078;42.544;22.966;2023-04-03T08:38:56;93127.41;;;11.55;80.01
10079;BME280;5078;42.544;22.966;2023-04-03T08:41:29;93107.03;;;11.69;79.47
10079;BME280;5078;42.544;22.966;2023-04-03T08:44:03;93111.78;;;11.86;77.22
10079;BME280;5078;42.544;22.966;2023-04-03T08:46:45;93102.94;;;11.73;77.50
10079;BME280;5078;42.544;22.966;2023-04-03T08:49:20;93098.84;;;11.63;78.13
10079;BME280;5078;42.544;22.966;2023-04-03T08:51:49;93083.50;;;11.65;75.96
10079;BME280;5078;42.544;22.966;2023-04-03T08:54:24;93085.78;;;11.75;75.80
10079;BME280;5078;42.544;22.966;2023-04-03T08:56:55;93091.25;;;11.54;76.82
10079;BME280;5078;42.544;22.966;2023-04-03T08:59:27;93075.94;;;11.49;74.31
10079;BME280;5078;42.544;22.966;2023-04-03T09:01:56;93096.50;;;11.40;76.30
10079;BME280;5078;42.544;22.966;2023-04-03T09:04:26;93079.88;;;11.73;75.66
10079;BME280;5078;42.544;22.966;2023-04-03T09:06:56;93078.44;;;11.77;75.08
10079;BME280;5078;42.544;22.966;2023-04-03T09:09:31;93040.00;;;11.60;68.83
10079;BME280;5078;42.544;22.966;2023-04-03T09:12:06;93067.59;;;11.72;70.19
10079;BME280;5078;42.544;22.966;2023-04-03T09:14:42;93065.56;;;11.74;70.21
10079;BME280;5078;42.544;22.966;2023-04-03T09:17:15;93071.53;;;12.09;68.34
10079;BME280;5078;42.544;22.966;2023-04-03T09:19:51;93066.63;;;12.00;68.69
10079;BME280;5078;42.544;22.966;2023-04-03T09:22:24;93062.34;;;12.05;69.10
10079;BME280;5078;42.544;22.966;2023-04-03T09:24:57;93060.09;;;12.22;67.79
10079;BME280;5078;42.544;22.966;2023-04-03T09:27:27;93056.63;;;12.02;67.19
10079;BME280;5078;42.544;22.966;2023-04-03T09:29:55;93055.41;;;11.91;67.45
10079;BME280;5078;42.544;22.966;2023-04-03T09:32:26;93056.78;;;11.80;67.80
10079;BME280;5078;42.544;22.966;2023-04-03T09:34:56;93055.34;;;11.71;66.80
10079;BME280;5078;42.544;22.966;2023-04-03T09:37:37;93048.00;;;11.73;68.16
10079;BME280;5078;42.544;22.966;2023-04-03T09:40:05;93035.72;;;11.72;67.46
10079;BME280;5078;42.544;22.966;2023-04-03T09:42:40;93055.56;;;11.83;68.05
10079;BME280;5078;42.544;22.966;2023-04-03T09:45:22;93037.78;;;11.83;68.51
10079;BME280;5078;42.544;22.966;2023-04-03T09:48:04;93047.03;;;11.94;67.47
10079;BME280;5078;42.544;22.966;2023-04-03T09:50:32;93040.69;;;12.08;68.24
10079;BME280;5078;42.544;22.966;2023-04-03T09:53:05;93035.38;;;12.08;66.98
10079;BME280;5078;42.544;22.966;2023-04-03T09:55:42;93038.41;;;12.05;66.61
10079;BME280;5078;42.544;22.966;2023-04-03T09:58:25;93038.22;;;12.20;65.03
10079;BME280;5078;42.544;22.966;2023-04-03T10:00:57;93040.25;;;12.05;64.54
10079;BME280;5078;42.544;22.966;2023-04-03T10:03:27;93025.34;;;11.97;64.69
10079;BME280;5078;42.544;22.966;2023-04-03T10:05:55;93044.16;;;12.09;61.80
10079;BME280;5078;42.544;22.966;2023-04-03T10:08:26;93038.84;;;12.16;60.98
10079;BME280;5078;42.544;22.966;2023-04-03T10:11:09;93038.59;;;12.37;60.71
10079;BME280;5078;42.544;22.966;2023-04-03T10:13:49;93037.81;;;12.23;60.36
10079;BME280;5078;42.544;22.966;2023-04-03T10:16:18;93032.09;;;12.33;60.78
10079;BME280;5078;42.544;22.966;2023-04-03T10:18:53;93028.41;;;12.21;61.27
10079;BME280;5078;42.544;22.966;2023-04-03T10:21:32;93023.91;;;12.21;60.95
10079;BME280;5078;42.544;22.966;2023-04-03T10:24:07;93019.63;;;12.14;61.04
10079;BME280;5078;42.544;22.966;2023-04-03T10:26:41;93016.97;;;12.14;61.91
10079;BME280;5078;42.544;22.966;2023-04-03T10:29:24;93014.50;;;12.12;61.59
10079;BME280;5078;42.544;22.966;2023-04-03T10:32:00;93010.84;;;12.13;61.56
10079;BME280;5078;42.544;22.966;2023-04-03T10:34:31;93012.28;;;12.09;62.21
10079;BME280;5078;42.544;22.966;2023-04-03T10:37:05;93005.53;;;12.06;62.33
10079;BME280;5078;42.544;22.966;2023-04-03T10:39:40;92999.41;;;11.93;62.91
10079;BME280;5078;42.544;22.966;2023-04-03T10:42:15;92990.38;;;11.80;63.21
10079;BME280;5078;42.544;22.966;2023-04-03T10:45:03;93001.41;;;11.77;62.66
10079;BME280;5078;42.544;22.966;2023-04-03T10:47:36;93003.47;;;11.95;63.89
10079;BME280;5078;42.544;22.966;2023-04-03T10:50:15;93010.63;;;12.08;63.91
10079;BME280;5078;42.544;22.966;2023-04-03T10:52:53;93004.91;;;12.11;63.01
10079;BME280;5078;42.544;22.966;2023-04-03T10:55:32;92992.88;;;12.02;61.98
10079;BME280;5078;42.544;22.966;2023-04-03T10:58:02;93007.78;;;11.90;62.82
10079;BME280;5078;42.544;22.966;2023-04-03T11:00:36;93005.13;;;11.90;63.48
10079;BME280;5078;42.544;22.966;2023-04-03T11:03:11;93021.06;;;11.96;63.82
10079;BME280;5078;42.544;22.966;2023-04-03T11:05:42;93009.16;;;11.85;63.34
10079;BME280;5078;42.544;22.966;2023-04-03T11:08:17;93018.41;;;11.90;64.41
10079;BME280;5078;42.544;22.966;2023-04-03T11:10:50;93002.06;;;11.99;65.46
10079;BME280;5078;42.544;22.966;2023-04-03T11:13:19;93009.41;;;12.17;67.99
10079;BME280;5078;42.544;22.966;2023-04-03T11:15:53;93004.31;;;12.02;68.39
10079;BME280;5078;42.544;22.966;2023-04-03T11:18:25;93000.84;;;11.89;71.31
10079;BME280;5078;42.544;22.966;2023-04-03T11:20:59;92992.03;;;11.95;73.20
10079;BME280;5078;42.544;22.966;2023-04-03T11:23:30;92994.47;;;11.83;72.40
10079;BME280;5078;42.544;22.966;2023-04-03T11:26:06;92994.91;;;11.86;75.01
10079;BME280;5078;42.544;22.966;2023-04-03T11:28:33;93000.22;;;11.86;73.77
10079;BME280;5078;42.544;22.966;2023-04-03T11:31:10;92996.16;;;11.91;75.34
10079;BME280;5078;42.544;22.966;2023-04-03T11:33:45;92995.31;;;11.90;76.51
10079;BME280;5078;42.544;22.966;2023-04-03T11:36:19;93001.66;;;11.96;78.40
10079;BME280;5078;42.544;22.966;2023-04-03T11:38:51;92992.47;;;11.92;86.34
10079;BME280;5078;42.544;22.966;2023-04-03T11:41:25;92983.84;;;11.56;89.66
10079;BME280;5078;42.544;22.966;2023-04-03T11:43:58;92998.56;;;11.59;95.51
10079;BME280;5078;42.544;22.966;2023-04-03T11:46:50;92994.06;;;11.73;93.68
10079;BME280;5078;42.544;22.966;2023-04-03T11:49:52;92992.03;;;11.75;100.00
10079;BME280;5078;42.544;22.966;2023-04-03T11:55:46;92988.13;;;11.37;92.08
10079;BME280;5078;42.544;22.966;2023-04-03T11:58:19;92993.94;;;10.99;94.87
10079;BME280;5078;42.544;22.966;2023-04-03T12:00:56;92981.84;;;10.77;96.06
10079;BME280;5078;42.544;22.966;2023-04-03T12:10:02;92989.69;;;10.50;97.68
10079;BME280;5078;42.544;22.966;2023-04-03T12:12:39;92982.75;;;10.49;99.25
10079;BME280;5078;42.544;22.966;2023-04-03T12:15:23;92979.69;;;10.52;100.00
10079;BME280;5078;42.544;22.966;2023-04-03T12:17:50;92985.72;;;10.33;100.00
10079;BME280;5078;42.544;22.966;2023-04-03T12:20:54;92972.31;;;10.41;100.00
10079;BME280;5078;42.544;22.966;2023-04-03T12:23:28;92961.66;;;10.28;100.00
10079;BME280;5078;42.544;22.966;2023-04-03T12:26:03;92962.28;;;10.30;100.00
10079;BME280;5078;42.544;22.966;2023-04-03T12:28:36;92948.94;;;10.23;100.00
10079;BME280;5078;42.544;22.966;2023-04-03T12:31:04;92941.28;;;10.28;100.00
10079;BME280;5078;42.544;22.966;2023-04-03T12:33:42;92939.28;;;10.37;100.00
10079;BME280;5078;42.544;22.966;2023-04-03T12:36:18;92942.75;;;10.38;100.00
10079;BME280;5078;42.544;22.966;2023-04-03T12:39:02;92932.59;;;10.48;100.00
10079;BME280;5078;42.544;22.966;2023-04-03T12:41:37;92920.56;;;10.45;100.00
10079;BME280;5078;42.544;22.966;2023-04-03T12:44:24;92923.16;;;10.32;100.00
10079;BME280;5078;42.544;22.966;2023-04-03T12:46:53;92921.38;;;10.04;100.00
10079;BME280;5078;42.544;22.966;2023-04-03T12:49:38;92919.00;;;10.16;100.00
10079;BME280;5078;42.544;22.966;2023-04-03T12:52:16;92926.19;;;9.94;100.00
10079;BME280;5078;42.544;22.966;2023-04-03T12:54:46;92917.97;;;9.82;100.00
10079;BME280;5078;42.544;22.966;2023-04-03T12:57:18;92936.56;;;9.89;100.00
10079;BME280;5078;42.544;22.966;2023-04-03T12:59:45;92888.31;;;9.31;100.00
10079;BME280;5078;42.544;22.966;2023-04-03T13:02:24;92914.63;;;9.67;100.00
10079;BME280;5078;42.544;22.966;2023-04-03T13:04:53;92904.88;;;9.39;100.00
10079;BME280;5078;42.544;22.966;2023-04-03T13:07:25;92909.63;;;9.22;100.00
10079;BME280;5078;42.544;22.966;2023-04-03T13:10:00;92910.50;;;9.08;100.00
10079;BME280;5078;42.544;22.966;2023-04-03T13:12:28;92872.41;;;8.74;100.00
10079;BME280;5078;42.544;22.966;2023-04-03T13:14:57;92895.88;;;8.84;100.00
10079;BME280;5078;42.544;22.966;2023-04-03T13:17:26;92906.19;;;8.79;100.00
10079;BME280;5078;42.544;22.966;2023-04-03T13:19:54;92919.00;;;8.82;100.00
10079;BME280;5078;42.544;22.966;2023-04-03T13:22:28;92892.25;;;8.70;100.00
10079;BME280;5078;42.544;22.966;2023-04-03T13:24:59;92897.41;;;8.78;100.00
10079;BME280;5078;42.544;22.966;2023-04-03T13:27:31;92879.66;;;8.51;100.00